Weerstation
Sluispark-LeuvenLeuven-Sluispark

Weerstation
Wilsele-PutkapelWilsele-Putkapel



Nabijgelegen vliegvelden - METAR rapporten

   
EBBE - Wilsele bij Leuven
Gewijzigd: 21-09-2023 17:55
Wat regen mogelijk, Grotendeels bewolkt    Wind: Zuiden 13 km/h
Wat regen mogelijk, Grotendeels bewolkt
Wind: Wind: Zuiden 13 km/h
Temperatuur: 15°C
Dauwpunt: 14°C
Vochtigheid: 94%
Barometer: 996 hPa
Bewolking: Grotendeels bewolkt
Zicht: meer dan 10 km
Bewolking: Grotendeels bewolkt 2438.4 m,
Grotendeels bewolkt 2895.6 m
EBBE 211555Z AUTO 18007KT 9999 -RA BKN080/// BKN095/// 15/14 Q0996 BLU
EBAW - Antwerp
Gewijzigd: 21-09-2023 18:20
Kleine buien, Regen, Licht bewolkt    Wind: ZZO 7.4 km/h
Kleine buien, Regen, Licht bewolkt
Wind: Wind: ZZO 7.4 km/h
Temperatuur: 15°C
Dauwpunt: 14°C
Vochtigheid: 94%
Barometer: 996 hPa
Bewolking: Licht bewolkt
Zicht: meer dan 10 km
Bewolking: Licht bewolkt 518.2 m
EBAW 211620Z 15004KT 120V180 9999 -SHRA FEW017 15/14 Q0996 NOSIG
EBLG - Li├Ęge
Gewijzigd: 21-09-2023 18:20
Wat regen mogelijk, Grotendeels bewolkt    Wind: ZZW 13 km/h
Wat regen mogelijk, Grotendeels bewolkt
Wind: Wind: ZZW 13 km/h
Temperatuur: 15°C
Dauwpunt: 13°C
Vochtigheid: 88%
Barometer: 997 hPa
Bewolking: Grotendeels bewolkt
Zicht: meer dan 10 km
Bewolking: Gedeeltelijk bewolkt 304.8 m,
Grotendeels bewolkt 1219.2 m
EBLG 211620Z 20007KT 9999 -RA SCT010 BKN040 15/13 Q0997 NOSIG
EBCV - Mons/Bergen
Gewijzigd: 21-09-2023 17:55
   Wind: Zuiden 13 km/h
Wind: Wind: Zuiden 13 km/h
Temperatuur: 15°C
Dauwpunt: 14°C
Vochtigheid: 94%
Barometer: 996 hPa
Zicht: meer dan 10 km
EBCV 211555Z AUTO 18007KT 9999 /// 15/14 Q0996 BLU
EHBK - Maastricht
Gewijzigd: 21-09-2023 18:25
Gedeeltelijk bewolkt    Wind: ZW 25.9 km/h
Gedeeltelijk bewolkt
Wind: Wind: ZW 25.9 km/h
Temperatuur: 16°C
Dauwpunt: 14°C
Vochtigheid: 88%
Barometer: 997 hPa
Bewolking: Gedeeltelijk bewolkt
Zicht: meer dan 10 km
Bewolking: Gedeeltelijk bewolkt
EHBK 211625Z AUTO 22014KT 9999 NSC 16/14 Q0997 TEMPO 6000 SHRA FEW015CB
ELLX - Luxemburg
Gewijzigd: 21-09-2023 18:20
Regen, Grotendeels bewolkt    Wind: ZW 18.5 km/h
Regen, Grotendeels bewolkt
Wind: Wind: ZW 18.5 km/h
Temperatuur: 15°C
Dauwpunt: 15°C
Vochtigheid: 100%
Barometer: 999 hPa
Bewolking: Grotendeels bewolkt
Zicht: meer dan 10 km
Bewolking: Gedeeltelijk bewolkt 274.3 m,
Grotendeels bewolkt 2133.6 m
ELLX 211620Z 23010KT 9999 RA SCT009 BKN070 15/15 Q0999 RERA BECMG -RA
EBOS - Oostende
Gewijzigd: 21-09-2023 18:20
Grotendeels bewolkt    Wind: Noorden 5.6 km/h
Grotendeels bewolkt
Wind: Wind: Noorden 5.6 km/h
Temperatuur: 13°C
Dauwpunt: 12°C
Vochtigheid: 94%
Barometer: 996 hPa
Bewolking: Grotendeels bewolkt
Zicht: meer dan 10 km
Bewolking: Gedeeltelijk bewolkt 213.4 m,
Grotendeels bewolkt 1371.6 m
EBOS 211620Z 01003KT 330V030 9999 SCT007 BKN045 13/12 Q0996 NOSIG
  

Script ontwikkeld door  Saratoga-weather.org Aangepast voor de template door  Weerstation Leuven

U vindt ons ook hier:

UK Metoffice

WeatherCloud

European Weather Network

Weather Underground

Benelux Weather Network

AWEKAS

WeatherlinkIP

HAMweather, WeatherForYou, PWS Weather

Het Weer Aktueel

Apparatuur in gebruik:

Weer-station
Davis VP2 weatherstation

Weer-programma
Meteobridge

Weer-computer
D-Link DIR-505

Davis VP2 weatherstation

Meteobridge

D-Link DIR-505